createdAt,value
2022-08-16T00:01:24.526Z,20.84
2022-08-16T00:03:53.144Z,21.02
2022-08-16T00:06:20.824Z,20.92
2022-08-16T00:08:48.187Z,20.88
2022-08-16T00:11:16.762Z,20.76
2022-08-16T00:13:53.465Z,20.81
2022-08-16T00:17:06.162Z,20.84
2022-08-16T00:19:41.695Z,20.94
2022-08-16T00:22:13.751Z,20.78
2022-08-16T00:24:46.804Z,20.60
2022-08-16T00:27:15.033Z,20.55
2022-08-16T00:29:42.308Z,20.45
2022-08-16T00:32:11.104Z,20.47
2022-08-16T00:34:43.195Z,20.55
2022-08-16T00:37:20.477Z,20.58
2022-08-16T00:39:56.862Z,20.48
2022-08-16T00:42:31.961Z,20.47
2022-08-16T00:45:25.470Z,20.48
2022-08-16T00:47:55.099Z,20.47
2022-08-16T00:50:36.102Z,20.52
2022-08-16T00:53:06.918Z,20.36
2022-08-16T00:55:38.285Z,20.32
2022-08-16T00:58:13.263Z,20.42
2022-08-16T01:00:45.512Z,20.37
2022-08-16T01:03:30.390Z,20.32
2022-08-16T01:05:59.343Z,20.28
2022-08-16T01:08:35.464Z,20.28
2022-08-16T01:11:05.492Z,20.41
2022-08-16T01:13:36.397Z,20.46
2022-08-16T01:16:10.165Z,20.33
2022-08-16T01:18:47.463Z,20.50
2022-08-16T01:22:47.049Z,20.23
2022-08-16T01:24:57.544Z,20.27
2022-08-16T01:27:36.941Z,20.23
2022-08-16T01:30:28.920Z,20.28
2022-08-16T01:33:14.042Z,20.40
2022-08-16T01:35:54.211Z,20.30
2022-08-16T01:38:35.219Z,20.28
2022-08-16T01:41:29.712Z,20.18
2022-08-16T01:44:00.937Z,20.15
2022-08-16T01:46:46.642Z,20.13
2022-08-16T01:49:20.068Z,20.07
2022-08-16T01:51:57.931Z,20.08
2022-08-16T01:54:30.638Z,19.91
2022-08-16T01:56:59.552Z,19.96
2022-08-16T01:59:27.116Z,20.03
2022-08-16T02:02:00.176Z,20.12
2022-08-16T02:04:40.007Z,19.99
2022-08-16T02:07:18.721Z,19.71
2022-08-16T02:09:58.357Z,19.80
2022-08-16T02:12:49.482Z,19.73
2022-08-16T02:15:25.293Z,19.86
2022-08-16T02:17:58.343Z,19.94
2022-08-16T02:20:28.437Z,19.84
2022-08-16T02:23:05.571Z,19.97
2022-08-16T02:25:51.237Z,19.80
2022-08-16T02:28:23.718Z,19.98
2022-08-16T02:30:52.465Z,19.93
2022-08-16T02:33:24.367Z,19.74
2022-08-16T02:36:14.559Z,19.51
2022-08-16T02:38:57.194Z,19.50
2022-08-16T02:41:24.059Z,19.52
2022-08-16T02:43:53.468Z,19.59
2022-08-16T02:46:20.938Z,19.68
2022-08-16T02:49:01.978Z,19.83
2022-08-16T02:51:29.042Z,19.70
2022-08-16T02:53:58.528Z,19.76
2022-08-16T02:56:25.971Z,19.83
2022-08-16T02:58:59.550Z,19.78
2022-08-16T03:01:36.532Z,19.64
2022-08-16T03:04:39.223Z,19.68
2022-08-16T03:06:56.374Z,19.73
2022-08-16T03:09:25.294Z,19.82
2022-08-16T03:11:56.141Z,19.79
2022-08-16T03:14:24.493Z,19.76
2022-08-16T03:16:59.411Z,19.92
2022-08-16T03:19:47.876Z,19.83
2022-08-16T03:22:28.856Z,19.88
2022-08-16T03:25:04.466Z,19.76
2022-08-16T03:27:38.945Z,19.80
2022-08-16T03:30:16.488Z,19.84
2022-08-16T03:32:47.237Z,19.54
2022-08-16T03:35:18.554Z,19.52
2022-08-16T03:38:01.803Z,19.37
2022-08-16T03:40:33.835Z,19.13
2022-08-16T03:43:20.237Z,19.13
2022-08-16T03:45:49.461Z,19.18
2022-08-16T03:48:21.316Z,19.22
2022-08-16T03:51:08.549Z,19.15
2022-08-16T03:53:38.355Z,19.15
2022-08-16T03:56:07.631Z,18.99
2022-08-16T03:58:45.766Z,18.98
2022-08-16T04:01:15.506Z,19.01
2022-08-16T04:03:43.248Z,19.12
2022-08-16T04:06:11.219Z,19.27
2022-08-16T04:08:39.525Z,19.28
2022-08-16T04:11:07.216Z,19.23
2022-08-16T04:14:00.192Z,19.26
2022-08-16T04:16:27.720Z,19.46
2022-08-16T04:19:02.372Z,19.62
2022-08-16T04:21:32.941Z,19.72
2022-08-16T04:24:00.835Z,19.88
2022-08-16T04:26:30.801Z,19.98
2022-08-16T04:29:14.801Z,20.11
2022-08-16T04:31:56.220Z,20.31
2022-08-16T04:34:28.679Z,20.33
2022-08-16T04:36:57.977Z,20.29
2022-08-16T04:39:36.527Z,20.16
2022-08-16T04:42:15.523Z,20.28
2022-08-16T04:44:53.892Z,20.34
2022-08-16T04:47:31.438Z,20.18
2022-08-16T04:49:59.915Z,20.21
2022-08-16T04:52:35.147Z,20.25
2022-08-16T04:55:15.210Z,20.30
2022-08-16T04:57:43.790Z,20.46
2022-08-16T05:00:32.271Z,20.62
2022-08-16T05:03:11.431Z,20.81
2022-08-16T05:05:45.382Z,20.85
2022-08-16T05:08:30.544Z,20.84
2022-08-16T05:11:03.649Z,20.78
2022-08-16T05:13:41.471Z,20.65
2022-08-16T05:16:27.523Z,20.75
2022-08-16T05:19:00.735Z,20.72
2022-08-16T05:21:38.345Z,20.77
2022-08-16T05:24:07.707Z,20.84
2022-08-16T05:26:42.960Z,21.06
2022-08-16T05:29:15.261Z,21.11
2022-08-16T05:31:47.971Z,21.35
2022-08-16T05:34:21.409Z,21.77
2022-08-16T05:36:51.178Z,22.25
2022-08-16T05:39:20.483Z,22.57
2022-08-16T05:41:48.977Z,23.02
2022-08-16T05:44:23.102Z,23.51
2022-08-16T05:46:56.004Z,23.54
2022-08-16T05:49:24.357Z,23.60
2022-08-16T05:51:54.820Z,24.20
2022-08-16T05:54:24.989Z,24.75
2022-08-16T05:56:54.276Z,24.87
2022-08-16T05:59:24.150Z,25.20
2022-08-16T06:01:52.231Z,26.16
2022-08-16T06:04:34.826Z,26.69
2022-08-16T06:07:09.019Z,27.91
2022-08-16T06:09:51.394Z,28.17
2022-08-16T06:12:26.744Z,27.62
2022-08-16T06:15:04.494Z,27.01
2022-08-16T06:17:43.126Z,26.39
2022-08-16T06:20:23.432Z,26.10
2022-08-16T06:22:59.007Z,26.08
2022-08-16T06:25:35.890Z,26.89
2022-08-16T06:28:09.537Z,28.70
2022-08-16T06:30:43.548Z,29.44
2022-08-16T06:33:22.170Z,31.46
2022-08-16T06:35:55.287Z,33.37
2022-08-16T06:38:33.305Z,34.99
2022-08-16T06:41:06.570Z,33.34
2022-08-16T06:43:41.712Z,30.74
2022-08-16T06:46:31.559Z,29.28
2022-08-16T06:48:59.332Z,28.28
2022-08-16T06:51:48.375Z,27.60
2022-08-16T06:54:14.269Z,26.98
2022-08-16T06:56:42.408Z,26.67
2022-08-16T06:59:10.298Z,26.44
2022-08-16T07:01:46.330Z,26.25
2022-08-16T07:04:31.661Z,25.60
2022-08-16T07:07:01.721Z,25.45
2022-08-16T07:09:30.620Z,26.03
2022-08-16T07:12:03.371Z,26.40
2022-08-16T07:14:31.717Z,27.92
2022-08-16T07:16:59.830Z,28.58
2022-08-16T07:20:04.116Z,28.01
2022-08-16T07:22:37.117Z,28.99
2022-08-16T07:25:11.797Z,27.97
2022-08-16T07:27:40.319Z,28.48
2022-08-16T07:30:46.122Z,28.59
2022-08-16T07:33:00.336Z,29.52
2022-08-16T07:35:27.510Z,29.50
2022-08-16T07:37:54.769Z,29.56
2022-08-16T07:40:36.946Z,30.75
2022-08-16T07:43:09.674Z,32.89
2022-08-16T07:45:36.812Z,34.51
2022-08-16T07:48:11.221Z,36.04
2022-08-16T07:50:56.563Z,37.92
2022-08-16T07:53:31.712Z,39.48
2022-08-16T07:56:00.505Z,40.27
2022-08-16T07:58:33.789Z,41.10
2022-08-16T08:01:11.053Z,40.50
2022-08-16T08:03:48.212Z,38.32
2022-08-16T08:06:22.756Z,34.21
2022-08-16T08:08:57.577Z,34.46
2022-08-16T08:11:28.817Z,33.94
2022-08-16T08:14:03.794Z,32.42
2022-08-16T08:16:32.950Z,32.55
2022-08-16T08:19:02.845Z,34.24
2022-08-16T08:21:56.633Z,36.66
2022-08-16T08:24:21.360Z,39.23
2022-08-16T08:26:50.147Z,41.17
2022-08-16T08:29:23.064Z,42.73
2022-08-16T08:31:52.985Z,44.20
2022-08-16T08:34:21.122Z,44.42
2022-08-16T08:36:54.039Z,44.76
2022-08-16T08:39:21.750Z,45.22
2022-08-16T08:41:49.426Z,43.61
2022-08-16T08:44:28.648Z,42.16
2022-08-16T08:47:04.741Z,43.71
2022-08-16T08:49:46.828Z,45.80
2022-08-16T08:52:35.137Z,47.58
2022-08-16T08:55:11.223Z,47.00
2022-08-16T08:57:46.817Z,47.11
2022-08-16T09:00:18.422Z,47.48
2022-08-16T09:02:52.073Z,47.12
2022-08-16T09:05:22.936Z,46.98
2022-08-16T09:08:05.871Z,47.70
2022-08-16T09:10:33.758Z,49.94
2022-08-16T09:13:01.419Z,50.35
2022-08-16T09:15:32.556Z,49.50
2022-08-16T09:18:26.635Z,49.65
2022-08-16T09:21:00.163Z,49.09
2022-08-16T09:23:36.305Z,50.61
2022-08-16T09:26:44.142Z,49.65
2022-08-16T09:29:15.187Z,51.97
2022-08-16T09:31:42.152Z,53.32
2022-08-16T09:34:10.496Z,54.38
2022-08-16T09:36:45.950Z,54.42
2022-08-16T09:39:15.784Z,54.78
2022-08-16T09:41:54.272Z,52.44
2022-08-16T09:45:10.597Z,50.84
2022-08-16T09:47:13.565Z,48.60
2022-08-16T09:49:41.346Z,46.01
2022-08-16T09:52:10.315Z,42.05
2022-08-16T09:54:44.443Z,44.89
2022-08-16T09:57:12.471Z,43.36
2022-08-16T09:59:41.994Z,39.47
2022-08-16T10:02:23.006Z,38.63
2022-08-16T10:04:56.705Z,38.02
2022-08-16T10:07:38.339Z,40.02
2022-08-16T10:10:31.076Z,45.29
2022-08-16T10:13:16.673Z,48.89
2022-08-16T10:15:55.780Z,50.90
2022-08-16T10:18:54.110Z,51.15
2022-08-16T10:21:17.943Z,51.15
2022-08-16T10:23:46.275Z,49.71
2022-08-16T10:27:18.069Z,47.49
2022-08-16T10:29:01.747Z,45.86
2022-08-16T10:31:43.650Z,44.70
2022-08-16T10:34:30.785Z,39.72
2022-08-16T10:37:00.138Z,39.52
2022-08-16T10:39:40.783Z,38.62
2022-08-16T10:42:13.629Z,37.44
2022-08-16T10:44:42.289Z,36.12
2022-08-16T10:47:10.246Z,35.29
2022-08-16T10:49:39.079Z,34.63
2022-08-16T10:52:17.986Z,33.63
2022-08-16T10:57:33.329Z,32.71
2022-08-16T11:00:22.417Z,32.82
2022-08-16T11:02:57.739Z,32.68
2022-08-16T11:05:59.168Z,31.06
2022-08-16T11:08:17.376Z,31.57
2022-08-16T11:11:04.856Z,32.12
2022-08-16T11:19:12.632Z,31.38
2022-08-16T11:24:40.039Z,31.00
2022-08-16T11:27:19.751Z,31.13
2022-08-16T11:29:52.009Z,31.01
2022-08-16T11:32:20.295Z,30.80
2022-08-16T11:35:11.002Z,30.91
2022-08-16T11:38:24.078Z,31.08
2022-08-16T11:40:32.418Z,30.82
2022-08-16T11:43:01.498Z,30.80
2022-08-16T11:45:33.478Z,30.46
2022-08-16T11:48:05.126Z,30.76
2022-08-16T11:50:33.668Z,30.96
2022-08-16T11:53:05.660Z,30.87
2022-08-16T11:55:38.209Z,30.43
2022-08-16T11:58:08.313Z,30.34
2022-08-16T12:00:51.922Z,30.32
2022-08-16T12:03:31.446Z,30.20
2022-08-16T12:06:11.204Z,29.88
2022-08-16T12:08:57.379Z,29.85
2022-08-16T12:11:28.116Z,29.85
2022-08-16T12:14:04.695Z,29.67
2022-08-16T12:16:34.440Z,29.77
2022-08-16T12:19:04.635Z,29.67
2022-08-16T12:21:36.059Z,29.68
2022-08-16T12:24:20.770Z,29.75
2022-08-16T12:26:48.497Z,30.01
2022-08-16T12:29:16.476Z,30.06
2022-08-16T12:32:00.839Z,30.32
2022-08-16T12:34:30.277Z,29.96
2022-08-16T12:36:58.625Z,30.17
2022-08-16T12:39:29.075Z,30.16
2022-08-16T12:41:56.713Z,30.29
2022-08-16T12:44:26.311Z,30.22
2022-08-16T12:47:17.094Z,30.32
2022-08-16T12:49:44.068Z,30.34
2022-08-16T12:52:33.656Z,30.03
2022-08-16T12:55:00.707Z,30.11
2022-08-16T12:57:36.324Z,30.16
2022-08-16T13:00:26.499Z,30.07
2022-08-16T13:02:54.505Z,29.86
2022-08-16T13:05:22.262Z,29.38
2022-08-16T13:07:51.320Z,29.50
2022-08-16T13:10:37.262Z,29.71
2022-08-16T13:13:06.919Z,29.89
2022-08-16T13:15:51.517Z,29.95
2022-08-16T13:18:32.540Z,29.92
2022-08-16T13:21:00.729Z,30.07
2022-08-16T13:23:27.705Z,30.11
2022-08-16T13:25:57.259Z,30.05
2022-08-16T13:28:24.551Z,30.03
2022-08-16T13:30:55.101Z,30.03
2022-08-16T13:33:37.859Z,30.21
2022-08-16T13:36:17.022Z,30.41
2022-08-16T13:38:53.179Z,30.64
2022-08-16T13:41:21.393Z,30.50
2022-08-16T13:43:55.099Z,30.33
2022-08-16T13:46:25.633Z,30.49
2022-08-16T13:48:53.447Z,30.45
2022-08-16T13:51:23.843Z,30.26
2022-08-16T13:54:02.624Z,30.40
2022-08-16T13:56:36.813Z,30.30
2022-08-16T13:59:13.913Z,30.36
2022-08-16T14:01:55.367Z,30.46
2022-08-16T14:04:27.585Z,30.20
2022-08-16T14:06:57.126Z,30.15
2022-08-16T14:09:25.254Z,30.32
2022-08-16T14:11:54.706Z,30.35
2022-08-16T14:14:28.697Z,30.26
2022-08-16T14:17:01.606Z,30.27
2022-08-16T14:19:30.022Z,30.23
2022-08-16T14:22:14.674Z,30.16
2022-08-16T14:24:47.426Z,30.21
2022-08-16T14:27:21.835Z,30.30
2022-08-16T14:29:50.714Z,30.42
2022-08-16T14:32:33.581Z,30.49
2022-08-16T14:35:08.368Z,30.52
2022-08-16T14:37:38.178Z,30.47
2022-08-16T14:40:08.175Z,30.57
2022-08-16T14:42:36.780Z,30.47
2022-08-16T14:45:10.123Z,30.48
2022-08-16T14:47:38.324Z,30.52
2022-08-16T14:50:09.069Z,30.62
2022-08-16T14:52:58.278Z,30.62
2022-08-16T14:55:27.950Z,30.55
2022-08-16T14:57:55.805Z,30.55
2022-08-16T15:00:33.212Z,30.67
2022-08-16T15:03:09.796Z,30.67
2022-08-16T15:05:39.299Z,30.76
2022-08-16T15:08:06.266Z,30.76
2022-08-16T15:10:37.329Z,30.84
2022-08-16T15:13:09.608Z,30.76
2022-08-16T15:15:38.456Z,30.82
2022-08-16T15:18:11.776Z,30.70
2022-08-16T15:20:41.342Z,30.73
2022-08-16T15:23:10.009Z,30.71
2022-08-16T15:25:44.807Z,30.54
2022-08-16T15:28:30.918Z,30.63
2022-08-16T15:31:03.374Z,30.66
2022-08-16T15:33:35.067Z,30.70
2022-08-16T15:36:04.698Z,30.69
2022-08-16T15:38:56.981Z,30.73
2022-08-16T15:41:49.577Z,30.67
2022-08-16T15:44:22.670Z,30.69
2022-08-16T15:47:00.037Z,30.58
2022-08-16T15:49:37.177Z,30.54
2022-08-16T15:52:24.869Z,30.47
2022-08-16T15:55:13.414Z,30.52
2022-08-16T15:57:51.341Z,30.52
2022-08-16T16:00:20.608Z,30.45
2022-08-16T16:02:49.606Z,30.37
2022-08-16T16:05:16.986Z,30.28
2022-08-16T16:07:56.254Z,30.31
2022-08-16T16:10:29.347Z,30.28
2022-08-16T16:13:00.457Z,30.34
2022-08-16T16:15:32.348Z,30.36
2022-08-16T16:17:59.622Z,30.49
2022-08-16T16:20:39.012Z,30.33
2022-08-16T16:23:10.605Z,30.24
2022-08-16T16:25:44.028Z,30.23
2022-08-16T16:29:05.039Z,30.20
2022-08-16T16:31:09.018Z,30.10
2022-08-16T16:33:39.779Z,30.18
2022-08-16T16:36:08.390Z,30.12
2022-08-16T16:38:35.540Z,30.18
2022-08-16T16:41:09.380Z,30.06
2022-08-16T16:43:40.784Z,30.13
2022-08-16T16:46:43.005Z,30.10
2022-08-16T16:48:56.545Z,30.05
2022-08-16T16:51:24.443Z,30.06
2022-08-16T16:53:56.537Z,30.16
2022-08-16T16:56:32.238Z,30.11
2022-08-16T16:59:07.743Z,30.12
2022-08-16T17:02:00.040Z,30.11
2022-08-16T17:04:32.982Z,30.03
2022-08-16T17:07:01.867Z,30.01
2022-08-16T17:09:29.693Z,29.99
2022-08-16T17:11:58.313Z,29.97
2022-08-16T17:14:33.235Z,29.92
2022-08-16T17:17:06.397Z,29.92
2022-08-16T17:19:40.062Z,29.84
2022-08-16T17:22:14.273Z,29.80
2022-08-16T17:24:50.933Z,29.83
2022-08-16T17:27:33.176Z,29.84
2022-08-16T17:30:19.297Z,29.85
2022-08-16T17:32:56.742Z,29.78
2022-08-16T17:35:40.999Z,29.77
2022-08-16T17:38:10.417Z,29.76
2022-08-16T17:40:47.983Z,29.68
2022-08-16T17:43:33.149Z,29.66
2022-08-16T17:46:01.429Z,29.53
2022-08-16T17:48:31.065Z,29.32
2022-08-16T17:50:59.428Z,29.33
2022-08-16T17:53:26.372Z,29.22
2022-08-16T17:55:54.581Z,29.12
2022-08-16T17:58:24.118Z,29.03
2022-08-16T18:00:55.857Z,28.95
2022-08-16T18:04:08.958Z,28.89
2022-08-16T18:06:28.942Z,28.76
2022-08-16T18:09:02.518Z,28.67
2022-08-16T18:11:33.937Z,28.62
2022-08-16T18:14:00.943Z,28.59
2022-08-16T18:16:27.787Z,28.57
2022-08-16T18:18:54.665Z,28.53
2022-08-16T18:21:40.942Z,28.51
2022-08-16T18:24:09.841Z,28.43
2022-08-16T18:26:37.676Z,28.36
2022-08-16T18:29:05.045Z,28.32
2022-08-16T18:31:32.502Z,28.29
2022-08-16T18:34:01.173Z,28.24
2022-08-16T18:36:28.161Z,28.19
2022-08-16T18:38:55.345Z,28.13
2022-08-16T18:41:25.167Z,28.07
2022-08-16T18:44:22.401Z,28.02
2022-08-16T18:46:45.642Z,27.97
2022-08-16T18:49:17.995Z,27.91
2022-08-16T18:51:45.340Z,27.86
2022-08-16T18:54:17.841Z,27.82
2022-08-16T18:56:55.478Z,27.81
2022-08-16T18:59:27.497Z,27.79
2022-08-16T19:01:55.524Z,27.77
2022-08-16T19:04:47.553Z,27.75
2022-08-16T19:07:15.061Z,27.77
2022-08-16T19:09:41.958Z,27.78
2022-08-16T19:12:09.272Z,27.67
2022-08-16T19:14:36.141Z,27.62
2022-08-16T19:17:03.062Z,27.53
2022-08-16T19:19:29.916Z,27.48
2022-08-16T19:21:57.402Z,27.43
2022-08-16T19:24:28.254Z,27.45
2022-08-16T19:26:57.122Z,27.47
2022-08-16T19:29:24.623Z,27.48
2022-08-16T19:31:51.507Z,27.41
2022-08-16T19:34:18.434Z,27.39
2022-08-16T19:36:45.398Z,27.29
2022-08-16T19:39:15.145Z,27.25
2022-08-16T19:41:53.233Z,27.23
2022-08-16T19:44:22.312Z,27.20
2022-08-16T19:46:49.808Z,27.11
2022-08-16T19:49:17.179Z,27.07
2022-08-16T19:51:45.942Z,27.09
2022-08-16T19:54:12.853Z,27.05
2022-08-16T19:56:39.748Z,27.06
2022-08-16T19:59:40.321Z,27.00
2022-08-16T20:01:53.532Z,27.08
2022-08-16T20:04:22.615Z,27.05
2022-08-16T20:06:52.627Z,27.02
2022-08-16T20:09:21.735Z,26.97
2022-08-16T20:11:49.780Z,26.91
2022-08-16T20:14:24.114Z,26.87
2022-08-16T20:16:57.865Z,26.81
2022-08-16T20:19:27.377Z,26.79
2022-08-16T20:21:56.386Z,26.77
2022-08-16T20:24:34.051Z,26.73
2022-08-16T20:27:03.171Z,26.76
2022-08-16T20:29:30.089Z,26.67
2022-08-16T20:31:56.988Z,26.61
2022-08-16T20:34:23.860Z,26.58
2022-08-16T20:36:50.720Z,26.60
2022-08-16T20:39:17.596Z,26.66
2022-08-16T20:41:44.565Z,26.67
2022-08-16T20:44:12.928Z,26.68
2022-08-16T20:46:40.241Z,26.73
2022-08-16T20:49:09.207Z,26.69
2022-08-16T20:51:49.749Z,26.66
2022-08-16T20:54:18.112Z,26.69
2022-08-16T20:56:45.013Z,26.72
2022-08-16T20:59:11.893Z,26.66
2022-08-16T21:01:46.281Z,26.62
2022-08-16T21:04:23.186Z,26.53
2022-08-16T21:06:52.952Z,26.55
2022-08-16T21:09:20.356Z,26.42
2022-08-16T21:11:53.182Z,26.40
2022-08-16T21:14:20.070Z,26.36
2022-08-16T21:16:46.921Z,26.33
2022-08-16T21:19:13.791Z,26.27
2022-08-16T21:21:40.685Z,26.27
2022-08-16T21:24:07.760Z,26.25
2022-08-16T21:26:39.010Z,26.25
2022-08-16T21:29:11.239Z,26.22
2022-08-16T21:31:42.521Z,26.22
2022-08-16T21:34:09.427Z,26.18
2022-08-16T21:36:36.771Z,26.17
2022-08-16T21:39:06.846Z,26.22
2022-08-16T21:41:35.557Z,26.27
2022-08-16T21:44:02.594Z,26.10
2022-08-16T21:46:29.461Z,26.05
2022-08-16T21:48:56.495Z,25.98
2022-08-16T21:51:23.403Z,25.95
2022-08-16T21:53:50.344Z,25.89
2022-08-16T21:56:17.680Z,25.95
2022-08-16T21:58:53.201Z,25.96
2022-08-16T22:01:24.041Z,25.91
2022-08-16T22:04:09.655Z,25.86
2022-08-16T22:06:40.746Z,25.82
2022-08-16T22:09:09.801Z,25.72
2022-08-16T22:11:37.786Z,25.63
2022-08-16T22:14:05.437Z,25.60
2022-08-16T22:16:36.251Z,25.55
2022-08-16T22:19:04.471Z,25.52
2022-08-16T22:21:32.900Z,25.49
2022-08-16T22:24:00.149Z,25.34
2022-08-16T22:26:30.386Z,25.39
2022-08-16T22:29:04.375Z,25.37
2022-08-16T22:31:31.313Z,25.35
2022-08-16T22:33:58.634Z,25.34
2022-08-16T22:36:28.629Z,25.31
2022-08-16T22:39:05.817Z,25.26
2022-08-16T22:41:35.260Z,25.23
2022-08-16T22:44:04.805Z,25.29
2022-08-16T22:46:34.753Z,25.16
2022-08-16T22:49:02.522Z,25.11
2022-08-16T22:51:30.269Z,25.01
2022-08-16T22:53:58.281Z,25.15
2022-08-16T22:56:25.920Z,25.20
2022-08-16T22:58:53.240Z,25.14
2022-08-16T23:01:23.675Z,25.12
2022-08-16T23:03:51.357Z,25.16
2022-08-16T23:06:18.721Z,25.15
2022-08-16T23:08:45.601Z,25.21
2022-08-16T23:11:20.968Z,25.14
2022-08-16T23:13:57.514Z,24.95
2022-08-16T23:16:34.282Z,24.80
2022-08-16T23:19:05.807Z,24.79
2022-08-16T23:21:33.830Z,24.75
2022-08-16T23:24:01.205Z,24.72
2022-08-16T23:26:44.873Z,24.69
2022-08-16T23:29:23.535Z,24.63
2022-08-16T23:31:57.979Z,24.65
2022-08-16T23:34:27.334Z,24.74
2022-08-16T23:36:54.754Z,24.80
2022-08-16T23:39:22.611Z,24.73
2022-08-16T23:41:49.663Z,24.62
2022-08-16T23:44:42.347Z,24.55
2022-08-16T23:47:05.871Z,24.61
2022-08-16T23:49:56.466Z,24.64
2022-08-16T23:52:53.850Z,24.61
2022-08-16T23:55:07.591Z,24.52
2022-08-16T23:57:34.472Z,24.53
